sensor_id;sensor_type;location;lat;lon;timestamp;P1;durP1;ratioP1;P2;durP2;ratioP2
3891;SDS011;1961;48.194;16.370;2023-05-10T00:02:18;45.97;;;7.40;;
3891;SDS011;1961;48.194;16.370;2023-05-10T00:04:45;44.60;;;7.37;;
3891;SDS011;1961;48.194;16.370;2023-05-10T00:07:11;43.57;;;7.37;;
3891;SDS011;1961;48.194;16.370;2023-05-10T00:09:37;44.67;;;7.30;;
3891;SDS011;1961;48.194;16.370;2023-05-10T00:12:03;43.57;;;7.10;;
3891;SDS011;1961;48.194;16.370;2023-05-10T00:14:30;45.13;;;7.53;;
3891;SDS011;1961;48.194;16.370;2023-05-10T00:16:56;44.22;;;7.15;;
3891;SDS011;1961;48.194;16.370;2023-05-10T00:19:22;42.20;;;6.50;;
3891;SDS011;1961;48.194;16.370;2023-05-10T00:21:48;42.47;;;6.87;;
3891;SDS011;1961;48.194;16.370;2023-05-10T00:24:14;46.40;;;7.33;;
3891;SDS011;1961;48.194;16.370;2023-05-10T00:26:41;45.20;;;7.43;;
3891;SDS011;1961;48.194;16.370;2023-05-10T00:29:07;43.97;;;7.17;;
3891;SDS011;1961;48.194;16.370;2023-05-10T00:31:33;46.27;;;7.27;;
3891;SDS011;1961;48.194;16.370;2023-05-10T00:34:00;43.60;;;6.80;;
3891;SDS011;1961;48.194;16.370;2023-05-10T00:36:26;43.95;;;6.60;;
3891;SDS011;1961;48.194;16.370;2023-05-10T00:38:52;48.60;;;7.43;;
3891;SDS011;1961;48.194;16.370;2023-05-10T00:41:18;44.08;;;6.78;;
3891;SDS011;1961;48.194;16.370;2023-05-10T00:43:46;43.40;;;6.65;;
3891;SDS011;1961;48.194;16.370;2023-05-10T00:46:14;44.07;;;7.10;;
3891;SDS011;1961;48.194;16.370;2023-05-10T00:48:41;43.90;;;7.32;;
3891;SDS011;1961;48.194;16.370;2023-05-10T00:51:07;45.90;;;6.75;;
3891;SDS011;1961;48.194;16.370;2023-05-10T00:53:34;44.45;;;6.95;;
3891;SDS011;1961;48.194;16.370;2023-05-10T00:56:00;43.17;;;7.27;;
3891;SDS011;1961;48.194;16.370;2023-05-10T00:58:28;43.03;;;7.17;;
3891;SDS011;1961;48.194;16.370;2023-05-10T01:00:55;44.87;;;7.80;;
3891;SDS011;1961;48.194;16.370;2023-05-10T01:03:22;46.25;;;7.20;;
3891;SDS011;1961;48.194;16.370;2023-05-10T01:05:48;43.40;;;7.30;;
3891;SDS011;1961;48.194;16.370;2023-05-10T01:08:15;45.10;;;7.95;;
3891;SDS011;1961;48.194;16.370;2023-05-10T01:10:41;44.38;;;7.18;;
3891;SDS011;1961;48.194;16.370;2023-05-10T01:13:09;43.75;;;7.82;;
3891;SDS011;1961;48.194;16.370;2023-05-10T01:15:36;44.00;;;7.60;;
3891;SDS011;1961;48.194;16.370;2023-05-10T01:18:02;43.80;;;7.72;;
3891;SDS011;1961;48.194;16.370;2023-05-10T01:20:32;43.83;;;7.00;;
3891;SDS011;1961;48.194;16.370;2023-05-10T01:23:17;45.40;;;7.10;;
3891;SDS011;1961;48.194;16.370;2023-05-10T01:25:58;43.33;;;7.13;;
3891;SDS011;1961;48.194;16.370;2023-05-10T01:33:58;42.50;;;6.83;;
3891;SDS011;1961;48.194;16.370;2023-05-10T01:41:36;45.08;;;7.50;;
3891;SDS011;1961;48.194;16.370;2023-05-10T01:44:09;46.03;;;7.40;;
3891;SDS011;1961;48.194;16.370;2023-05-10T01:46:38;46.53;;;7.15;;
3891;SDS011;1961;48.194;16.370;2023-05-10T01:49:07;43.20;;;6.97;;
3891;SDS011;1961;48.194;16.370;2023-05-10T01:51:51;43.90;;;7.60;;
3891;SDS011;1961;48.194;16.370;2023-05-10T01:54:22;43.50;;;7.30;;
3891;SDS011;1961;48.194;16.370;2023-05-10T01:56:51;44.20;;;7.90;;
3891;SDS011;1961;48.194;16.370;2023-05-10T01:59:18;46.58;;;7.65;;
3891;SDS011;1961;48.194;16.370;2023-05-10T02:01:45;45.22;;;7.10;;
3891;SDS011;1961;48.194;16.370;2023-05-10T02:04:14;43.40;;;7.10;;
3891;SDS011;1961;48.194;16.370;2023-05-10T02:06:42;43.90;;;6.80;;
3891;SDS011;1961;48.194;16.370;2023-05-10T02:09:09;43.27;;;7.20;;
3891;SDS011;1961;48.194;16.370;2023-05-10T02:11:39;44.47;;;7.45;;
3891;SDS011;1961;48.194;16.370;2023-05-10T02:14:07;45.25;;;7.32;;
3891;SDS011;1961;48.194;16.370;2023-05-10T02:16:35;48.25;;;7.15;;
3891;SDS011;1961;48.194;16.370;2023-05-10T02:19:02;43.30;;;6.87;;
3891;SDS011;1961;48.194;16.370;2023-05-10T02:21:29;43.25;;;7.07;;
3891;SDS011;1961;48.194;16.370;2023-05-10T02:23:56;43.38;;;7.35;;
3891;SDS011;1961;48.194;16.370;2023-05-10T02:26:23;46.00;;;6.60;;
3891;SDS011;1961;48.194;16.370;2023-05-10T02:28:50;43.40;;;7.40;;
3891;SDS011;1961;48.194;16.370;2023-05-10T02:31:17;44.50;;;6.50;;
3891;SDS011;1961;48.194;16.370;2023-05-10T02:33:44;45.70;;;7.87;;
3891;SDS011;1961;48.194;16.370;2023-05-10T02:36:11;43.88;;;7.65;;
3891;SDS011;1961;48.194;16.370;2023-05-10T02:38:38;44.67;;;7.93;;
3891;SDS011;1961;48.194;16.370;2023-05-10T02:41:05;44.28;;;7.70;;
3891;SDS011;1961;48.194;16.370;2023-05-10T02:43:32;44.97;;;7.78;;
3891;SDS011;1961;48.194;16.370;2023-05-10T02:45:59;43.80;;;7.55;;
3891;SDS011;1961;48.194;16.370;2023-05-10T02:48:25;46.50;;;7.60;;
3891;SDS011;1961;48.194;16.370;2023-05-10T02:50:52;44.13;;;7.68;;
3891;SDS011;1961;48.194;16.370;2023-05-10T02:53:20;44.30;;;7.53;;
3891;SDS011;1961;48.194;16.370;2023-05-10T02:55:49;44.35;;;8.02;;
3891;SDS011;1961;48.194;16.370;2023-05-10T02:58:16;44.40;;;8.17;;
3891;SDS011;1961;48.194;16.370;2023-05-10T03:00:44;45.28;;;7.50;;
3891;SDS011;1961;48.194;16.370;2023-05-10T03:03:12;46.65;;;8.38;;
3891;SDS011;1961;48.194;16.370;2023-05-10T03:05:38;44.55;;;8.05;;
3891;SDS011;1961;48.194;16.370;2023-05-10T03:08:04;45.60;;;8.05;;
3891;SDS011;1961;48.194;16.370;2023-05-10T03:10:32;43.38;;;7.30;;
3891;SDS011;1961;48.194;16.370;2023-05-10T03:15:34;46.22;;;8.27;;
3891;SDS011;1961;48.194;16.370;2023-05-10T03:20:29;44.07;;;8.00;;
3891;SDS011;1961;48.194;16.370;2023-05-10T03:23:02;44.00;;;7.60;;
3891;SDS011;1961;48.194;16.370;2023-05-10T03:25:31;45.58;;;8.10;;
3891;SDS011;1961;48.194;16.370;2023-05-10T03:27:57;49.85;;;9.02;;
3891;SDS011;1961;48.194;16.370;2023-05-10T03:30:23;45.00;;;8.30;;
3891;SDS011;1961;48.194;16.370;2023-05-10T03:32:50;43.03;;;7.70;;
3891;SDS011;1961;48.194;16.370;2023-05-10T03:35:16;44.80;;;7.60;;
3891;SDS011;1961;48.194;16.370;2023-05-10T03:37:42;45.57;;;8.63;;
3891;SDS011;1961;48.194;16.370;2023-05-10T03:40:09;44.60;;;7.83;;
3891;SDS011;1961;48.194;16.370;2023-05-10T03:42:35;44.97;;;8.15;;
3891;SDS011;1961;48.194;16.370;2023-05-10T03:45:02;44.88;;;7.35;;
3891;SDS011;1961;48.194;16.370;2023-05-10T03:47:28;43.67;;;7.65;;
3891;SDS011;1961;48.194;16.370;2023-05-10T03:49:54;46.20;;;8.52;;
3891;SDS011;1961;48.194;16.370;2023-05-10T03:52:21;46.58;;;8.40;;
3891;SDS011;1961;48.194;16.370;2023-05-10T03:54:47;44.67;;;7.85;;
3891;SDS011;1961;48.194;16.370;2023-05-10T03:57:13;45.30;;;8.02;;
3891;SDS011;1961;48.194;16.370;2023-05-10T03:59:39;44.60;;;8.20;;
3891;SDS011;1961;48.194;16.370;2023-05-10T04:02:05;45.65;;;9.13;;
3891;SDS011;1961;48.194;16.370;2023-05-10T04:04:32;45.70;;;8.60;;
3891;SDS011;1961;48.194;16.370;2023-05-10T04:06:58;45.30;;;8.32;;
3891;SDS011;1961;48.194;16.370;2023-05-10T04:09:24;46.10;;;9.38;;
3891;SDS011;1961;48.194;16.370;2023-05-10T04:11:50;44.35;;;8.43;;
3891;SDS011;1961;48.194;16.370;2023-05-10T04:14:17;45.38;;;8.93;;
3891;SDS011;1961;48.194;16.370;2023-05-10T04:16:43;45.85;;;8.30;;
3891;SDS011;1961;48.194;16.370;2023-05-10T04:19:10;44.90;;;8.82;;
3891;SDS011;1961;48.194;16.370;2023-05-10T04:21:36;45.85;;;8.73;;
3891;SDS011;1961;48.194;16.370;2023-05-10T04:24:02;46.60;;;8.32;;
3891;SDS011;1961;48.194;16.370;2023-05-10T04:26:28;46.28;;;8.68;;
3891;SDS011;1961;48.194;16.370;2023-05-10T04:28:55;44.05;;;7.70;;
3891;SDS011;1961;48.194;16.370;2023-05-10T04:31:21;44.20;;;8.07;;
3891;SDS011;1961;48.194;16.370;2023-05-10T04:33:47;44.00;;;8.75;;
3891;SDS011;1961;48.194;16.370;2023-05-10T04:36:14;46.50;;;8.63;;
3891;SDS011;1961;48.194;16.370;2023-05-10T04:38:41;47.25;;;8.70;;
3891;SDS011;1961;48.194;16.370;2023-05-10T04:41:08;46.15;;;8.18;;
3891;SDS011;1961;48.194;16.370;2023-05-10T04:43:34;44.45;;;8.30;;
3891;SDS011;1961;48.194;16.370;2023-05-10T04:46:01;45.35;;;9.18;;
3891;SDS011;1961;48.194;16.370;2023-05-10T04:48:27;47.20;;;8.23;;
3891;SDS011;1961;48.194;16.370;2023-05-10T04:50:53;46.40;;;8.20;;
3891;SDS011;1961;48.194;16.370;2023-05-10T04:53:19;45.63;;;8.50;;
3891;SDS011;1961;48.194;16.370;2023-05-10T04:55:46;45.80;;;9.20;;
3891;SDS011;1961;48.194;16.370;2023-05-10T04:58:13;45.00;;;8.20;;
3891;SDS011;1961;48.194;16.370;2023-05-10T05:00:39;46.40;;;8.10;;
3891;SDS011;1961;48.194;16.370;2023-05-10T05:03:05;46.88;;;8.25;;
3891;SDS011;1961;48.194;16.370;2023-05-10T05:05:31;45.83;;;8.43;;
3891;SDS011;1961;48.194;16.370;2023-05-10T05:07:58;44.05;;;8.38;;
3891;SDS011;1961;48.194;16.370;2023-05-10T05:10:24;45.60;;;9.13;;
3891;SDS011;1961;48.194;16.370;2023-05-10T05:12:50;44.97;;;8.05;;
3891;SDS011;1961;48.194;16.370;2023-05-10T05:15:16;45.08;;;9.25;;
3891;SDS011;1961;48.194;16.370;2023-05-10T05:17:43;46.90;;;9.02;;
3891;SDS011;1961;48.194;16.370;2023-05-10T05:20:10;45.00;;;9.00;;
3891;SDS011;1961;48.194;16.370;2023-05-10T05:22:36;44.35;;;8.27;;
3891;SDS011;1961;48.194;16.370;2023-05-10T05:25:03;46.08;;;10.02;;
3891;SDS011;1961;48.194;16.370;2023-05-10T05:27:29;47.25;;;8.18;;
3891;SDS011;1961;48.194;16.370;2023-05-10T05:29:56;44.22;;;7.90;;
3891;SDS011;1961;48.194;16.370;2023-05-10T05:32:23;45.17;;;8.10;;
3891;SDS011;1961;48.194;16.370;2023-05-10T05:34:49;45.83;;;8.57;;
3891;SDS011;1961;48.194;16.370;2023-05-10T05:37:16;46.00;;;7.73;;
3891;SDS011;1961;48.194;16.370;2023-05-10T05:39:42;43.73;;;7.83;;
3891;SDS011;1961;48.194;16.370;2023-05-10T05:42:09;44.03;;;8.30;;
3891;SDS011;1961;48.194;16.370;2023-05-10T05:44:36;48.03;;;8.50;;
3891;SDS011;1961;48.194;16.370;2023-05-10T05:47:02;45.10;;;8.27;;
3891;SDS011;1961;48.194;16.370;2023-05-10T05:49:29;46.00;;;9.00;;
3891;SDS011;1961;48.194;16.370;2023-05-10T05:52:01;45.43;;;8.10;;
3891;SDS011;1961;48.194;16.370;2023-05-10T05:54:28;45.00;;;8.10;;
3891;SDS011;1961;48.194;16.370;2023-05-10T05:56:55;44.97;;;8.53;;
3891;SDS011;1961;48.194;16.370;2023-05-10T05:59:22;45.97;;;8.13;;
3891;SDS011;1961;48.194;16.370;2023-05-10T06:01:48;45.57;;;7.93;;
3891;SDS011;1961;48.194;16.370;2023-05-10T06:04:14;45.50;;;9.20;;
3891;SDS011;1961;48.194;16.370;2023-05-10T06:06:41;48.60;;;10.40;;
3891;SDS011;1961;48.194;16.370;2023-05-10T06:09:07;55.13;;;12.60;;
3891;SDS011;1961;48.194;16.370;2023-05-10T06:11:34;48.03;;;10.20;;
3891;SDS011;1961;48.194;16.370;2023-05-10T06:14:01;64.40;;;18.90;;
3891;SDS011;1961;48.194;16.370;2023-05-10T06:16:29;46.20;;;7.60;;
3891;SDS011;1961;48.194;16.370;2023-05-10T06:18:55;44.47;;;7.87;;
3891;SDS011;1961;48.194;16.370;2023-05-10T06:21:21;46.60;;;7.67;;
3891;SDS011;1961;48.194;16.370;2023-05-10T06:23:47;45.73;;;7.90;;
3891;SDS011;1961;48.194;16.370;2023-05-10T06:26:13;45.03;;;8.37;;
3891;SDS011;1961;48.194;16.370;2023-05-10T06:28:40;46.67;;;7.50;;
3891;SDS011;1961;48.194;16.370;2023-05-10T06:31:06;48.00;;;9.40;;
3891;SDS011;1961;48.194;16.370;2023-05-10T06:33:33;48.03;;;8.37;;
3891;SDS011;1961;48.194;16.370;2023-05-10T06:36:00;44.93;;;7.83;;
3891;SDS011;1961;48.194;16.370;2023-05-10T06:38:27;46.53;;;8.50;;
3891;SDS011;1961;48.194;16.370;2023-05-10T06:40:53;45.70;;;7.97;;
3891;SDS011;1961;48.194;16.370;2023-05-10T06:43:19;46.03;;;7.50;;
3891;SDS011;1961;48.194;16.370;2023-05-10T06:45:47;44.60;;;7.60;;
3891;SDS011;1961;48.194;16.370;2023-05-10T06:48:13;45.47;;;9.00;;
3891;SDS011;1961;48.194;16.370;2023-05-10T06:50:40;43.90;;;7.90;;
3891;SDS011;1961;48.194;16.370;2023-05-10T06:53:06;50.17;;;9.90;;
3891;SDS011;1961;48.194;16.370;2023-05-10T06:55:32;45.70;;;8.37;;
3891;SDS011;1961;48.194;16.370;2023-05-10T06:57:59;47.70;;;7.77;;
3891;SDS011;1961;48.194;16.370;2023-05-10T07:00:25;46.50;;;7.60;;
3891;SDS011;1961;48.194;16.370;2023-05-10T07:02:52;47.80;;;7.53;;
3891;SDS011;1961;48.194;16.370;2023-05-10T07:05:18;45.30;;;7.43;;
3891;SDS011;1961;48.194;16.370;2023-05-10T07:07:45;43.37;;;7.57;;
3891;SDS011;1961;48.194;16.370;2023-05-10T07:10:11;45.80;;;7.73;;
3891;SDS011;1961;48.194;16.370;2023-05-10T07:12:37;45.20;;;7.27;;
3891;SDS011;1961;48.194;16.370;2023-05-10T07:15:04;45.10;;;7.30;;
3891;SDS011;1961;48.194;16.370;2023-05-10T07:17:30;45.27;;;8.20;;
3891;SDS011;1961;48.194;16.370;2023-05-10T07:19:58;47.40;;;7.30;;
3891;SDS011;1961;48.194;16.370;2023-05-10T07:22:25;44.60;;;7.90;;
3891;SDS011;1961;48.194;16.370;2023-05-10T07:24:51;46.13;;;8.60;;
3891;SDS011;1961;48.194;16.370;2023-05-10T07:27:17;46.97;;;8.03;;
3891;SDS011;1961;48.194;16.370;2023-05-10T07:29:44;45.37;;;8.50;;
3891;SDS011;1961;48.194;16.370;2023-05-10T07:32:10;45.80;;;8.67;;
3891;SDS011;1961;48.194;16.370;2023-05-10T07:34:36;45.40;;;8.33;;
3891;SDS011;1961;48.194;16.370;2023-05-10T07:37:02;45.43;;;8.00;;
3891;SDS011;1961;48.194;16.370;2023-05-10T07:39:29;45.90;;;9.67;;
3891;SDS011;1961;48.194;16.370;2023-05-10T07:41:55;48.53;;;8.57;;
3891;SDS011;1961;48.194;16.370;2023-05-10T07:44:22;56.83;;;9.67;;
3891;SDS011;1961;48.194;16.370;2023-05-10T07:46:48;46.27;;;8.77;;
3891;SDS011;1961;48.194;16.370;2023-05-10T07:49:14;45.70;;;9.43;;
3891;SDS011;1961;48.194;16.370;2023-05-10T07:51:41;45.23;;;7.90;;
3891;SDS011;1961;48.194;16.370;2023-05-10T07:54:07;44.60;;;8.63;;
3891;SDS011;1961;48.194;16.370;2023-05-10T07:56:33;43.37;;;7.13;;
3891;SDS011;1961;48.194;16.370;2023-05-10T07:59:00;45.90;;;8.50;;
3891;SDS011;1961;48.194;16.370;2023-05-10T08:01:31;47.07;;;8.57;;
3891;SDS011;1961;48.194;16.370;2023-05-10T08:03:58;46.87;;;8.40;;
3891;SDS011;1961;48.194;16.370;2023-05-10T08:06:25;45.60;;;8.30;;
3891;SDS011;1961;48.194;16.370;2023-05-10T08:08:53;46.07;;;9.00;;
3891;SDS011;1961;48.194;16.370;2023-05-10T08:11:20;45.87;;;8.57;;
3891;SDS011;1961;48.194;16.370;2023-05-10T08:13:47;44.97;;;8.33;;
3891;SDS011;1961;48.194;16.370;2023-05-10T08:16:13;46.57;;;9.67;;
3891;SDS011;1961;48.194;16.370;2023-05-10T08:18:40;44.33;;;7.90;;
3891;SDS011;1961;48.194;16.370;2023-05-10T08:21:07;46.73;;;8.77;;
3891;SDS011;1961;48.194;16.370;2023-05-10T08:23:34;44.30;;;8.23;;
3891;SDS011;1961;48.194;16.370;2023-05-10T08:26:00;43.67;;;7.70;;
3891;SDS011;1961;48.194;16.370;2023-05-10T08:28:26;44.57;;;7.70;;
3891;SDS011;1961;48.194;16.370;2023-05-10T08:30:52;46.53;;;8.00;;
3891;SDS011;1961;48.194;16.370;2023-05-10T08:33:19;43.67;;;8.17;;
3891;SDS011;1961;48.194;16.370;2023-05-10T08:35:45;44.00;;;8.20;;
3891;SDS011;1961;48.194;16.370;2023-05-10T08:38:11;45.37;;;8.17;;
3891;SDS011;1961;48.194;16.370;2023-05-10T08:40:38;44.30;;;6.97;;
3891;SDS011;1961;48.194;16.370;2023-05-10T08:43:07;44.20;;;8.50;;
3891;SDS011;1961;48.194;16.370;2023-05-10T08:45:36;43.87;;;7.20;;
3891;SDS011;1961;48.194;16.370;2023-05-10T08:48:03;44.10;;;7.73;;
3891;SDS011;1961;48.194;16.370;2023-05-10T08:50:31;44.60;;;7.33;;
3891;SDS011;1961;48.194;16.370;2023-05-10T08:52:59;43.30;;;7.03;;
3891;SDS011;1961;48.194;16.370;2023-05-10T08:55:26;42.33;;;6.40;;
3891;SDS011;1961;48.194;16.370;2023-05-10T08:57:53;45.17;;;7.47;;
3891;SDS011;1961;48.194;16.370;2023-05-10T09:00:19;50.10;;;7.60;;
3891;SDS011;1961;48.194;16.370;2023-05-10T09:02:47;45.70;;;6.97;;
3891;SDS011;1961;48.194;16.370;2023-05-10T09:05:13;44.10;;;6.87;;
3891;SDS011;1961;48.194;16.370;2023-05-10T09:07:41;41.67;;;6.57;;
3891;SDS011;1961;48.194;16.370;2023-05-10T09:10:07;44.60;;;6.30;;
3891;SDS011;1961;48.194;16.370;2023-05-10T09:12:35;42.60;;;6.13;;
3891;SDS011;1961;48.194;16.370;2023-05-10T09:15:01;43.93;;;6.23;;
3891;SDS011;1961;48.194;16.370;2023-05-10T09:17:28;42.80;;;6.20;;
3891;SDS011;1961;48.194;16.370;2023-05-10T09:19:58;42.23;;;5.73;;
3891;SDS011;1961;48.194;16.370;2023-05-10T09:22:24;42.30;;;5.70;;
3891;SDS011;1961;48.194;16.370;2023-05-10T09:25:03;42.23;;;5.50;;
3891;SDS011;1961;48.194;16.370;2023-05-10T09:27:30;41.47;;;5.70;;
3891;SDS011;1961;48.194;16.370;2023-05-10T09:29:56;41.53;;;5.90;;
3891;SDS011;1961;48.194;16.370;2023-05-10T09:32:35;43.13;;;5.70;;
3891;SDS011;1961;48.194;16.370;2023-05-10T09:35:14;41.87;;;5.40;;
3891;SDS011;1961;48.194;16.370;2023-05-10T09:37:41;43.00;;;5.90;;
3891;SDS011;1961;48.194;16.370;2023-05-10T09:40:12;40.97;;;4.73;;
3891;SDS011;1961;48.194;16.370;2023-05-10T09:42:38;41.27;;;5.10;;
3891;SDS011;1961;48.194;16.370;2023-05-10T09:45:05;41.40;;;5.30;;
3891;SDS011;1961;48.194;16.370;2023-05-10T09:47:33;41.80;;;5.13;;
3891;SDS011;1961;48.194;16.370;2023-05-10T09:50:00;41.60;;;4.90;;
3891;SDS011;1961;48.194;16.370;2023-05-10T09:52:30;42.40;;;5.67;;
3891;SDS011;1961;48.194;16.370;2023-05-10T09:54:57;46.60;;;5.47;;
3891;SDS011;1961;48.194;16.370;2023-05-10T09:57:23;40.80;;;5.17;;
3891;SDS011;1961;48.194;16.370;2023-05-10T09:59:51;43.30;;;5.43;;
3891;SDS011;1961;48.194;16.370;2023-05-10T10:02:19;40.10;;;4.43;;
3891;SDS011;1961;48.194;16.370;2023-05-10T10:04:48;46.23;;;5.70;;
3891;SDS011;1961;48.194;16.370;2023-05-10T10:07:15;42.40;;;4.87;;
3891;SDS011;1961;48.194;16.370;2023-05-10T10:09:48;46.43;;;5.50;;
3891;SDS011;1961;48.194;16.370;2023-05-10T10:12:15;41.70;;;5.50;;
3891;SDS011;1961;48.194;16.370;2023-05-10T10:14:41;41.10;;;4.67;;
3891;SDS011;1961;48.194;16.370;2023-05-10T10:17:08;41.40;;;5.20;;
3891;SDS011;1961;48.194;16.370;2023-05-10T10:19:35;42.97;;;5.10;;
3891;SDS011;1961;48.194;16.370;2023-05-10T10:22:01;40.67;;;4.80;;
3891;SDS011;1961;48.194;16.370;2023-05-10T10:24:27;42.97;;;5.47;;
3891;SDS011;1961;48.194;16.370;2023-05-10T10:26:54;41.37;;;5.33;;
3891;SDS011;1961;48.194;16.370;2023-05-10T10:29:26;40.50;;;5.10;;
3891;SDS011;1961;48.194;16.370;2023-05-10T10:32:03;40.53;;;4.57;;
3891;SDS011;1961;48.194;16.370;2023-05-10T10:34:33;41.37;;;4.73;;
3891;SDS011;1961;48.194;16.370;2023-05-10T10:37:04;42.37;;;4.97;;
3891;SDS011;1961;48.194;16.370;2023-05-10T10:39:30;48.17;;;9.57;;
3891;SDS011;1961;48.194;16.370;2023-05-10T10:41:57;40.80;;;4.73;;
3891;SDS011;1961;48.194;16.370;2023-05-10T10:49:25;44.83;;;5.20;;
3891;SDS011;1961;48.194;16.370;2023-05-10T10:54:36;48.23;;;5.50;;
3891;SDS011;1961;48.194;16.370;2023-05-10T10:57:10;41.97;;;5.20;;
3891;SDS011;1961;48.194;16.370;2023-05-10T10:59:40;43.37;;;5.00;;
3891;SDS011;1961;48.194;16.370;2023-05-10T11:02:08;40.60;;;4.77;;
3891;SDS011;1961;48.194;16.370;2023-05-10T11:04:43;41.30;;;5.00;;
3891;SDS011;1961;48.194;16.370;2023-05-10T11:07:18;41.40;;;5.00;;
3891;SDS011;1961;48.194;16.370;2023-05-10T11:09:46;42.10;;;5.60;;
3891;SDS011;1961;48.194;16.370;2023-05-10T11:12:13;44.17;;;6.43;;
3891;SDS011;1961;48.194;16.370;2023-05-10T11:14:39;49.13;;;5.40;;
3891;SDS011;1961;48.194;16.370;2023-05-10T11:17:24;44.57;;;5.77;;
3891;SDS011;1961;48.194;16.370;2023-05-10T11:20:09;42.67;;;5.40;;
3891;SDS011;1961;48.194;16.370;2023-05-10T11:22:54;43.30;;;5.30;;
3891;SDS011;1961;48.194;16.370;2023-05-10T11:25:26;43.37;;;5.03;;
3891;SDS011;1961;48.194;16.370;2023-05-10T11:27:53;40.50;;;5.00;;
3891;SDS011;1961;48.194;16.370;2023-05-10T11:30:19;41.87;;;5.40;;
3891;SDS011;1961;48.194;16.370;2023-05-10T11:32:45;40.90;;;4.90;;
3891;SDS011;1961;48.194;16.370;2023-05-10T11:35:12;43.33;;;5.40;;
3891;SDS011;1961;48.194;16.370;2023-05-10T11:37:38;42.40;;;5.47;;
3891;SDS011;1961;48.194;16.370;2023-05-10T11:40:07;40.63;;;4.50;;
3891;SDS011;1961;48.194;16.370;2023-05-10T11:42:38;41.97;;;5.03;;
3891;SDS011;1961;48.194;16.370;2023-05-10T11:45:04;42.17;;;5.20;;
3891;SDS011;1961;48.194;16.370;2023-05-10T11:47:31;41.07;;;5.37;;
3891;SDS011;1961;48.194;16.370;2023-05-10T11:49:57;41.40;;;5.60;;
3891;SDS011;1961;48.194;16.370;2023-05-10T11:52:23;44.30;;;5.80;;
3891;SDS011;1961;48.194;16.370;2023-05-10T11:54:53;40.97;;;4.60;;
3891;SDS011;1961;48.194;16.370;2023-05-10T11:57:20;42.43;;;5.90;;
3891;SDS011;1961;48.194;16.370;2023-05-10T11:59:46;43.40;;;5.40;;
3891;SDS011;1961;48.194;16.370;2023-05-10T12:02:13;41.00;;;5.13;;
3891;SDS011;1961;48.194;16.370;2023-05-10T12:04:40;43.47;;;5.47;;
3891;SDS011;1961;48.194;16.370;2023-05-10T12:07:06;41.20;;;4.90;;
3891;SDS011;1961;48.194;16.370;2023-05-10T12:09:33;46.87;;;5.23;;
3891;SDS011;1961;48.194;16.370;2023-05-10T12:11:59;41.90;;;4.87;;
3891;SDS011;1961;48.194;16.370;2023-05-10T12:14:26;40.90;;;4.67;;
3891;SDS011;1961;48.194;16.370;2023-05-10T12:16:53;46.37;;;5.40;;
3891;SDS011;1961;48.194;16.370;2023-05-10T12:19:19;41.00;;;4.80;;
3891;SDS011;1961;48.194;16.370;2023-05-10T12:21:46;42.20;;;5.10;;
3891;SDS011;1961;48.194;16.370;2023-05-10T12:24:13;47.50;;;5.40;;
3891;SDS011;1961;48.194;16.370;2023-05-10T12:26:43;43.73;;;6.53;;
3891;SDS011;1961;48.194;16.370;2023-05-10T12:29:13;42.60;;;4.40;;
3891;SDS011;1961;48.194;16.370;2023-05-10T12:31:53;42.90;;;4.80;;
3891;SDS011;1961;48.194;16.370;2023-05-10T12:34:33;42.57;;;5.50;;
3891;SDS011;1961;48.194;16.370;2023-05-10T12:37:00;48.27;;;5.17;;
3891;SDS011;1961;48.194;16.370;2023-05-10T12:39:37;40.77;;;4.57;;
3891;SDS011;1961;48.194;16.370;2023-05-10T12:42:04;40.47;;;4.40;;
3891;SDS011;1961;48.194;16.370;2023-05-10T12:44:31;40.40;;;4.73;;
3891;SDS011;1961;48.194;16.370;2023-05-10T12:46:57;43.87;;;4.90;;
3891;SDS011;1961;48.194;16.370;2023-05-10T12:49:23;41.43;;;4.80;;
3891;SDS011;1961;48.194;16.370;2023-05-10T12:51:50;44.17;;;5.00;;
3891;SDS011;1961;48.194;16.370;2023-05-10T12:54:16;43.23;;;5.10;;
3891;SDS011;1961;48.194;16.370;2023-05-10T12:56:42;41.10;;;5.10;;
3891;SDS011;1961;48.194;16.370;2023-05-10T12:59:09;41.43;;;5.13;;
3891;SDS011;1961;48.194;16.370;2023-05-10T13:01:35;47.53;;;5.30;;
3891;SDS011;1961;48.194;16.370;2023-05-10T13:04:01;51.57;;;7.00;;
3891;SDS011;1961;48.194;16.370;2023-05-10T13:06:27;44.13;;;5.90;;
3891;SDS011;1961;48.194;16.370;2023-05-10T13:08:53;41.10;;;5.30;;
3891;SDS011;1961;48.194;16.370;2023-05-10T13:11:20;44.43;;;7.40;;
3891;SDS011;1961;48.194;16.370;2023-05-10T13:13:46;41.30;;;5.53;;
3891;SDS011;1961;48.194;16.370;2023-05-10T13:16:12;41.60;;;5.10;;
3891;SDS011;1961;48.194;16.370;2023-05-10T13:18:39;43.80;;;5.70;;
3891;SDS011;1961;48.194;16.370;2023-05-10T13:21:05;44.57;;;5.70;;
3891;SDS011;1961;48.194;16.370;2023-05-10T13:23:32;41.87;;;6.10;;
3891;SDS011;1961;48.194;16.370;2023-05-10T13:25:58;56.53;;;7.07;;
3891;SDS011;1961;48.194;16.370;2023-05-10T13:28:25;41.90;;;6.20;;
3891;SDS011;1961;48.194;16.370;2023-05-10T13:30:51;49.10;;;5.63;;
3891;SDS011;1961;48.194;16.370;2023-05-10T13:33:17;41.83;;;6.00;;
3891;SDS011;1961;48.194;16.370;2023-05-10T13:35:43;47.93;;;6.50;;
3891;SDS011;1961;48.194;16.370;2023-05-10T13:38:10;42.43;;;5.97;;
3891;SDS011;1961;48.194;16.370;2023-05-10T13:40:36;43.10;;;5.90;;
3891;SDS011;1961;48.194;16.370;2023-05-10T13:43:03;42.83;;;5.73;;
3891;SDS011;1961;48.194;16.370;2023-05-10T13:45:29;43.80;;;7.17;;
3891;SDS011;1961;48.194;16.370;2023-05-10T13:47:56;40.80;;;5.40;;
3891;SDS011;1961;48.194;16.370;2023-05-10T13:50:22;42.93;;;5.53;;
3891;SDS011;1961;48.194;16.370;2023-05-10T13:52:48;41.60;;;5.80;;
3891;SDS011;1961;48.194;16.370;2023-05-10T13:55:15;41.17;;;5.90;;
3891;SDS011;1961;48.194;16.370;2023-05-10T13:57:41;41.60;;;5.73;;
3891;SDS011;1961;48.194;16.370;2023-05-10T14:00:08;41.77;;;5.70;;
3891;SDS011;1961;48.194;16.370;2023-05-10T14:02:34;46.40;;;7.70;;
3891;SDS011;1961;48.194;16.370;2023-05-10T14:05:01;43.47;;;7.07;;
3891;SDS011;1961;48.194;16.370;2023-05-10T14:07:27;40.77;;;5.23;;
3891;SDS011;1961;48.194;16.370;2023-05-10T14:09:53;44.27;;;5.60;;
3891;SDS011;1961;48.194;16.370;2023-05-10T14:12:19;42.70;;;5.80;;
3891;SDS011;1961;48.194;16.370;2023-05-10T14:14:46;41.33;;;6.40;;
3891;SDS011;1961;48.194;16.370;2023-05-10T14:17:12;42.30;;;5.50;;
3891;SDS011;1961;48.194;16.370;2023-05-10T14:19:38;42.70;;;5.80;;
3891;SDS011;1961;48.194;16.370;2023-05-10T14:22:04;41.27;;;5.40;;
3891;SDS011;1961;48.194;16.370;2023-05-10T14:24:30;42.03;;;5.50;;
3891;SDS011;1961;48.194;16.370;2023-05-10T14:26:57;41.73;;;5.70;;
3891;SDS011;1961;48.194;16.370;2023-05-10T14:29:23;42.53;;;6.00;;
3891;SDS011;1961;48.194;16.370;2023-05-10T14:31:50;41.00;;;5.37;;
3891;SDS011;1961;48.194;16.370;2023-05-10T14:34:16;40.73;;;5.03;;
3891;SDS011;1961;48.194;16.370;2023-05-10T14:36:42;41.30;;;5.60;;
3891;SDS011;1961;48.194;16.370;2023-05-10T14:39:09;42.43;;;5.70;;
3891;SDS011;1961;48.194;16.370;2023-05-10T14:41:37;41.37;;;5.83;;
3891;SDS011;1961;48.194;16.370;2023-05-10T14:44:06;43.10;;;5.33;;
3891;SDS011;1961;48.194;16.370;2023-05-10T14:46:32;41.40;;;5.60;;
3891;SDS011;1961;48.194;16.370;2023-05-10T14:48:59;46.07;;;5.60;;
3891;SDS011;1961;48.194;16.370;2023-05-10T14:51:25;41.10;;;5.50;;
3891;SDS011;1961;48.194;16.370;2023-05-10T14:53:52;41.87;;;5.50;;
3891;SDS011;1961;48.194;16.370;2023-05-10T14:56:18;41.97;;;6.00;;
3891;SDS011;1961;48.194;16.370;2023-05-10T14:58:46;40.97;;;5.27;;
3891;SDS011;1961;48.194;16.370;2023-05-10T15:01:12;40.37;;;4.87;;
3891;SDS011;1961;48.194;16.370;2023-05-10T15:03:38;40.40;;;5.20;;
3891;SDS011;1961;48.194;16.370;2023-05-10T15:06:04;40.60;;;4.83;;
3891;SDS011;1961;48.194;16.370;2023-05-10T15:08:30;40.80;;;5.10;;
3891;SDS011;1961;48.194;16.370;2023-05-10T15:10:57;45.73;;;5.40;;
3891;SDS011;1961;48.194;16.370;2023-05-10T15:13:23;43.20;;;5.27;;